Accueil
METAR-TAF:

METAR-TAF

Aéroports :

Vanua Lava, Vanuatu

latitude: 13-51-06S, longitude: 167-32-13E, altitude: 2 m

Observation

Le bulletin a été fait il y a 2 heures et 7 minutes, à 00:00 UTC
Vent 4 kt de est/sud-est
Température 29°C
Humidité 74%
Pression 1012 hPa
Visibilité 10 km ou plus
Nuages fragmentés à une hauteur de 2000 ft
Ciel couvert à une hauteur de 11000 ft

METAR: NVSC 230000Z 12004KT 9999 BKN020 OVC110 29/24 Q1012

Heure: 13:07 (02:07 UTC)

Prévision

Le bulletin a été fait il y a 3 heures et 7 minutes, à 23:00 UTC
Prévision valable du 23 à 00 UTC au 23 à 24 UTC
Vent 10 kt de est/sud-est
Visibilité: 9000 m
Nuages épars à une hauteur de 2000 ft
Nuages fragmentés à une hauteur de 4000 ft
Nuages fragmentés à une hauteur de 1800 ft
Ciel couvert à une hauteur de 3800 ft
averses de pluie,

TAF: NVSC 222300Z 2300/2324 12010KT 9999 SCT020 BKN040 INTER 2300/2306 9000 SHRA BKN018 OVC038

Observations et prévisions météorologiques de plus de 4000 aéroports (messages METAR et TAF).

Les stations disponibles sont représentées par des disques jaunes et rouges sur la carte.

Passer la souris dessus pour voir le nom de la station.

Cliquer dessus pour voir les observations et prévisions météorologiques.

Pour changer de carte: cliquez sur les boutons verts avec une croix noire pour zoomer, sur le bouton vert avec un tiret pour effectuer un zoom arrière, ou sur les flèches vertes pour les cartes adjacentes.


METAR-TAF: